Portada
METAR-TAF:

METAR-TAF

Aeroports :

Aghajari, Iran

latitud: 30-46N, longitud: 049-40E, altitud: 29 m

Observació

L'informe es va fer fa 38 minuts, a les 14:00 UTC
Vent 4 kt del Nord/Nord-Oest
Temperatura 21°C
Humitat 88%
Pressió 1011 hPa
Visibilitat: 4000 m
Núvols disperses a una alçada de 4000 ft
Cel ennuvolat a una alçada de 10000 ft
boirina

METAR: OIAG 051400Z 33004KT 4000 BR SCT040 BKN100 21/19 Q1011

Hora: 18:08 (14:38 UTC)


TAF: manca

Observacions i pronòstics meteorològics de més de 4000 aeroports (METAR i TAF).

Les estacions disponibles són els punts grocs i vermells al mapa.

Posi el ratolí al punt desitjat per veure el nom de l'estació.

Feu clic per veure les observacions i els pronòstics meteorològics.

Per canviar el mapa: feu clic els botons verds amb una creu de color negre per apropar; al botó verd amb un guió per allunyar la imatge; o en les fletxes verdes per a mapes adjacents.


METAR-TAF: